sensor_id;sensor_type;location;lat;lon;timestamp;P1;durP1;ratioP1;P2;durP2;ratioP2
16075;SDS011;8142;48.242;11.644;2024-02-23T00:02:03;0.30;;;0.30;;
16075;SDS011;8142;48.242;11.644;2024-02-23T00:04:29;0.30;;;0.30;;
16075;SDS011;8142;48.242;11.644;2024-02-23T00:06:55;1.50;;;0.40;;
16075;SDS011;8142;48.242;11.644;2024-02-23T00:09:21;0.30;;;0.30;;
16075;SDS011;8142;48.242;11.644;2024-02-23T00:11:47;0.30;;;0.30;;
16075;SDS011;8142;48.242;11.644;2024-02-23T00:14:15;0.20;;;0.20;;
16075;SDS011;8142;48.242;11.644;2024-02-23T00:16:44;0.40;;;0.40;;
16075;SDS011;8142;48.242;11.644;2024-02-23T00:19:10;0.50;;;0.40;;
16075;SDS011;8142;48.242;11.644;2024-02-23T00:21:36;0.97;;;0.33;;
16075;SDS011;8142;48.242;11.644;2024-02-23T00:24:04;1.13;;;0.40;;
16075;SDS011;8142;48.242;11.644;2024-02-23T00:26:30;0.30;;;0.30;;
16075;SDS011;8142;48.242;11.644;2024-02-23T00:28:56;0.23;;;0.23;;
16075;SDS011;8142;48.242;11.644;2024-02-23T00:31:22;0.20;;;0.20;;
16075;SDS011;8142;48.242;11.644;2024-02-23T00:33:48;0.20;;;0.20;;
16075;SDS011;8142;48.242;11.644;2024-02-23T00:36:14;1.13;;;0.33;;
16075;SDS011;8142;48.242;11.644;2024-02-23T00:38:40;0.83;;;0.40;;
16075;SDS011;8142;48.242;11.644;2024-02-23T00:41:06;0.20;;;0.20;;
16075;SDS011;8142;48.242;11.644;2024-02-23T00:43:38;0.20;;;0.20;;
16075;SDS011;8142;48.242;11.644;2024-02-23T00:46:05;0.27;;;0.27;;
16075;SDS011;8142;48.242;11.644;2024-02-23T00:48:31;0.20;;;0.20;;
16075;SDS011;8142;48.242;11.644;2024-02-23T00:50:57;0.10;;;0.10;;
16075;SDS011;8142;48.242;11.644;2024-02-23T00:53:23;0.20;;;0.20;;
16075;SDS011;8142;48.242;11.644;2024-02-23T00:55:49;0.20;;;0.20;;
16075;SDS011;8142;48.242;11.644;2024-02-23T00:58:15;0.57;;;0.30;;
16075;SDS011;8142;48.242;11.644;2024-02-23T01:00:42;0.20;;;0.20;;
16075;SDS011;8142;48.242;11.644;2024-02-23T01:03:09;0.63;;;0.30;;
16075;SDS011;8142;48.242;11.644;2024-02-23T01:05:35;0.30;;;0.30;;
16075;SDS011;8142;48.242;11.644;2024-02-23T01:08:01;0.20;;;0.20;;
16075;SDS011;8142;48.242;11.644;2024-02-23T01:10:26;0.23;;;0.23;;
16075;SDS011;8142;48.242;11.644;2024-02-23T01:12:53;0.97;;;0.27;;
16075;SDS011;8142;48.242;11.644;2024-02-23T01:15:19;0.40;;;0.30;;
16075;SDS011;8142;48.242;11.644;2024-02-23T01:17:45;0.20;;;0.20;;
16075;SDS011;8142;48.242;11.644;2024-02-23T01:20:13;0.20;;;0.20;;
16075;SDS011;8142;48.242;11.644;2024-02-23T01:22:43;0.27;;;0.27;;
16075;SDS011;8142;48.242;11.644;2024-02-23T01:25:09;0.97;;;0.30;;
16075;SDS011;8142;48.242;11.644;2024-02-23T01:27:35;0.67;;;0.30;;
16075;SDS011;8142;48.242;11.644;2024-02-23T01:30:01;0.47;;;0.30;;
16075;SDS011;8142;48.242;11.644;2024-02-23T01:32:27;0.20;;;0.20;;
16075;SDS011;8142;48.242;11.644;2024-02-23T01:34:54;0.30;;;0.30;;
16075;SDS011;8142;48.242;11.644;2024-02-23T01:37:20;0.67;;;0.30;;
16075;SDS011;8142;48.242;11.644;2024-02-23T01:39:45;0.20;;;0.20;;
16075;SDS011;8142;48.242;11.644;2024-02-23T01:42:12;0.57;;;0.30;;
16075;SDS011;8142;48.242;11.644;2024-02-23T01:44:40;0.73;;;0.30;;
16075;SDS011;8142;48.242;11.644;2024-02-23T01:47:07;0.30;;;0.30;;
16075;SDS011;8142;48.242;11.644;2024-02-23T01:49:33;0.20;;;0.20;;
16075;SDS011;8142;48.242;11.644;2024-02-23T01:52:00;0.50;;;0.20;;
16075;SDS011;8142;48.242;11.644;2024-02-23T01:54:28;0.20;;;0.20;;
16075;SDS011;8142;48.242;11.644;2024-02-23T01:56:55;0.27;;;0.20;;
16075;SDS011;8142;48.242;11.644;2024-02-23T01:59:23;0.20;;;0.20;;
16075;SDS011;8142;48.242;11.644;2024-02-23T02:01:50;0.20;;;0.20;;
16075;SDS011;8142;48.242;11.644;2024-02-23T02:04:16;0.20;;;0.20;;
16075;SDS011;8142;48.242;11.644;2024-02-23T02:06:48;0.20;;;0.20;;
16075;SDS011;8142;48.242;11.644;2024-02-23T02:09:15;0.17;;;0.17;;
16075;SDS011;8142;48.242;11.644;2024-02-23T02:11:48;0.20;;;0.20;;
16075;SDS011;8142;48.242;11.644;2024-02-23T02:14:17;0.47;;;0.20;;
16075;SDS011;8142;48.242;11.644;2024-02-23T02:16:43;0.30;;;0.20;;
16075;SDS011;8142;48.242;11.644;2024-02-23T02:19:10;0.10;;;0.10;;
16075;SDS011;8142;48.242;11.644;2024-02-23T02:21:37;0.67;;;0.20;;
16075;SDS011;8142;48.242;11.644;2024-02-23T02:24:03;0.27;;;0.27;;
16075;SDS011;8142;48.242;11.644;2024-02-23T02:26:30;1.50;;;0.20;;
16075;SDS011;8142;48.242;11.644;2024-02-23T02:28:57;0.20;;;0.20;;
16075;SDS011;8142;48.242;11.644;2024-02-23T02:31:24;0.20;;;0.20;;
16075;SDS011;8142;48.242;11.644;2024-02-23T02:33:51;0.20;;;0.20;;
16075;SDS011;8142;48.242;11.644;2024-02-23T02:36:17;0.37;;;0.20;;
16075;SDS011;8142;48.242;11.644;2024-02-23T02:38:43;0.20;;;0.20;;
16075;SDS011;8142;48.242;11.644;2024-02-23T02:41:09;0.43;;;0.20;;
16075;SDS011;8142;48.242;11.644;2024-02-23T02:43:35;0.17;;;0.17;;
16075;SDS011;8142;48.242;11.644;2024-02-23T02:46:01;0.20;;;0.20;;
16075;SDS011;8142;48.242;11.644;2024-02-23T02:48:27;0.20;;;0.20;;
16075;SDS011;8142;48.242;11.644;2024-02-23T02:50:53;0.40;;;0.40;;
16075;SDS011;8142;48.242;11.644;2024-02-23T02:53:20;0.77;;;0.23;;
16075;SDS011;8142;48.242;11.644;2024-02-23T02:55:47;0.10;;;0.10;;
16075;SDS011;8142;48.242;11.644;2024-02-23T02:58:14;0.20;;;0.20;;
16075;SDS011;8142;48.242;11.644;2024-02-23T03:00:40;0.27;;;0.27;;
16075;SDS011;8142;48.242;11.644;2024-02-23T03:03:06;0.20;;;0.20;;
16075;SDS011;8142;48.242;11.644;2024-02-23T03:05:32;0.30;;;0.30;;
16075;SDS011;8142;48.242;11.644;2024-02-23T03:07:58;1.50;;;0.30;;
16075;SDS011;8142;48.242;11.644;2024-02-23T03:10:24;1.20;;;0.30;;
16075;SDS011;8142;48.242;11.644;2024-02-23T03:12:50;0.30;;;0.30;;
16075;SDS011;8142;48.242;11.644;2024-02-23T03:15:16;0.30;;;0.30;;
16075;SDS011;8142;48.242;11.644;2024-02-23T03:17:46;0.20;;;0.20;;
16075;SDS011;8142;48.242;11.644;2024-02-23T03:20:15;0.37;;;0.37;;
16075;SDS011;8142;48.242;11.644;2024-02-23T03:22:41;0.97;;;0.40;;
16075;SDS011;8142;48.242;11.644;2024-02-23T03:25:07;0.30;;;0.30;;
16075;SDS011;8142;48.242;11.644;2024-02-23T03:27:34;0.37;;;0.30;;
16075;SDS011;8142;48.242;11.644;2024-02-23T03:30:05;0.83;;;0.40;;
16075;SDS011;8142;48.242;11.644;2024-02-23T03:32:33;2.47;;;0.40;;
16075;SDS011;8142;48.242;11.644;2024-02-23T03:35:05;0.37;;;0.37;;
16075;SDS011;8142;48.242;11.644;2024-02-23T03:37:31;0.40;;;0.40;;
16075;SDS011;8142;48.242;11.644;2024-02-23T03:39:58;0.60;;;0.30;;
16075;SDS011;8142;48.242;11.644;2024-02-23T03:42:27;0.20;;;0.20;;
16075;SDS011;8142;48.242;11.644;2024-02-23T03:44:54;0.20;;;0.20;;
16075;SDS011;8142;48.242;11.644;2024-02-23T03:47:20;0.23;;;0.23;;
16075;SDS011;8142;48.242;11.644;2024-02-23T03:49:46;0.27;;;0.27;;
16075;SDS011;8142;48.242;11.644;2024-02-23T03:52:12;0.20;;;0.20;;
16075;SDS011;8142;48.242;11.644;2024-02-23T03:54:38;0.33;;;0.33;;
16075;SDS011;8142;48.242;11.644;2024-02-23T03:57:04;1.80;;;0.40;;
16075;SDS011;8142;48.242;11.644;2024-02-23T03:59:30;0.20;;;0.20;;
16075;SDS011;8142;48.242;11.644;2024-02-23T04:01:56;0.57;;;0.23;;
16075;SDS011;8142;48.242;11.644;2024-02-23T04:04:23;0.47;;;0.40;;
16075;SDS011;8142;48.242;11.644;2024-02-23T04:06:50;0.40;;;0.40;;
16075;SDS011;8142;48.242;11.644;2024-02-23T04:09:16;0.20;;;0.20;;
16075;SDS011;8142;48.242;11.644;2024-02-23T04:11:42;0.33;;;0.30;;
16075;SDS011;8142;48.242;11.644;2024-02-23T04:14:08;0.20;;;0.20;;
16075;SDS011;8142;48.242;11.644;2024-02-23T04:16:34;0.40;;;0.30;;
16075;SDS011;8142;48.242;11.644;2024-02-23T04:19:00;0.30;;;0.30;;
16075;SDS011;8142;48.242;11.644;2024-02-23T04:21:26;0.40;;;0.40;;
16075;SDS011;8142;48.242;11.644;2024-02-23T04:23:52;0.30;;;0.30;;
16075;SDS011;8142;48.242;11.644;2024-02-23T04:26:18;0.30;;;0.20;;
16075;SDS011;8142;48.242;11.644;2024-02-23T04:28:46;1.03;;;0.40;;
16075;SDS011;8142;48.242;11.644;2024-02-23T04:31:12;0.20;;;0.20;;
16075;SDS011;8142;48.242;11.644;2024-02-23T04:33:38;0.47;;;0.20;;
16075;SDS011;8142;48.242;11.644;2024-02-23T04:36:04;0.30;;;0.30;;
16075;SDS011;8142;48.242;11.644;2024-02-23T04:38:32;0.73;;;0.30;;
16075;SDS011;8142;48.242;11.644;2024-02-23T04:41:02;0.30;;;0.30;;
16075;SDS011;8142;48.242;11.644;2024-02-23T04:43:29;0.40;;;0.30;;
16075;SDS011;8142;48.242;11.644;2024-02-23T04:45:55;0.77;;;0.40;;
16075;SDS011;8142;48.242;11.644;2024-02-23T04:48:21;0.40;;;0.30;;
16075;SDS011;8142;48.242;11.644;2024-02-23T04:50:47;0.50;;;0.50;;
16075;SDS011;8142;48.242;11.644;2024-02-23T04:53:14;0.20;;;0.20;;
16075;SDS011;8142;48.242;11.644;2024-02-23T04:55:41;0.73;;;0.40;;
16075;SDS011;8142;48.242;11.644;2024-02-23T04:58:07;0.50;;;0.43;;
16075;SDS011;8142;48.242;11.644;2024-02-23T05:00:33;0.40;;;0.40;;
16075;SDS011;8142;48.242;11.644;2024-02-23T05:02:59;0.27;;;0.23;;
16075;SDS011;8142;48.242;11.644;2024-02-23T05:05:29;1.87;;;0.50;;
16075;SDS011;8142;48.242;11.644;2024-02-23T05:07:57;0.33;;;0.30;;
16075;SDS011;8142;48.242;11.644;2024-02-23T05:10:24;0.47;;;0.47;;
16075;SDS011;8142;48.242;11.644;2024-02-23T05:12:50;2.23;;;0.30;;
16075;SDS011;8142;48.242;11.644;2024-02-23T05:15:16;1.03;;;0.40;;
16075;SDS011;8142;48.242;11.644;2024-02-23T05:17:42;0.77;;;0.30;;
16075;SDS011;8142;48.242;11.644;2024-02-23T05:20:08;1.23;;;0.40;;
16075;SDS011;8142;48.242;11.644;2024-02-23T05:22:38;0.40;;;0.40;;
16075;SDS011;8142;48.242;11.644;2024-02-23T05:25:05;0.33;;;0.30;;
16075;SDS011;8142;48.242;11.644;2024-02-23T05:27:31;0.53;;;0.40;;
16075;SDS011;8142;48.242;11.644;2024-02-23T05:29:57;0.23;;;0.20;;
16075;SDS011;8142;48.242;11.644;2024-02-23T05:32:23;0.60;;;0.37;;
16075;SDS011;8142;48.242;11.644;2024-02-23T05:34:49;0.50;;;0.50;;
16075;SDS011;8142;48.242;11.644;2024-02-23T05:37:18;0.47;;;0.27;;
16075;SDS011;8142;48.242;11.644;2024-02-23T05:39:44;0.37;;;0.37;;
16075;SDS011;8142;48.242;11.644;2024-02-23T05:42:14;0.60;;;0.30;;
16075;SDS011;8142;48.242;11.644;2024-02-23T05:44:43;0.93;;;0.40;;
16075;SDS011;8142;48.242;11.644;2024-02-23T05:47:09;0.57;;;0.30;;
16075;SDS011;8142;48.242;11.644;2024-02-23T05:49:36;0.37;;;0.37;;
16075;SDS011;8142;48.242;11.644;2024-02-23T05:52:02;0.50;;;0.50;;
16075;SDS011;8142;48.242;11.644;2024-02-23T05:54:28;0.73;;;0.40;;
16075;SDS011;8142;48.242;11.644;2024-02-23T05:56:54;0.40;;;0.40;;
16075;SDS011;8142;48.242;11.644;2024-02-23T05:59:20;0.50;;;0.50;;
16075;SDS011;8142;48.242;11.644;2024-02-23T06:01:46;0.33;;;0.33;;
16075;SDS011;8142;48.242;11.644;2024-02-23T06:04:12;0.60;;;0.53;;
16075;SDS011;8142;48.242;11.644;2024-02-23T06:06:40;0.50;;;0.50;;
16075;SDS011;8142;48.242;11.644;2024-02-23T06:09:07;0.67;;;0.50;;
16075;SDS011;8142;48.242;11.644;2024-02-23T06:11:33;1.10;;;0.70;;
16075;SDS011;8142;48.242;11.644;2024-02-23T06:13:59;0.40;;;0.40;;
16075;SDS011;8142;48.242;11.644;2024-02-23T06:16:25;0.60;;;0.60;;
16075;SDS011;8142;48.242;11.644;2024-02-23T06:18:51;0.57;;;0.57;;
16075;SDS011;8142;48.242;11.644;2024-02-23T06:21:17;0.50;;;0.50;;
16075;SDS011;8142;48.242;11.644;2024-02-23T06:23:43;0.70;;;0.40;;
16075;SDS011;8142;48.242;11.644;2024-02-23T06:26:10;0.60;;;0.60;;
16075;SDS011;8142;48.242;11.644;2024-02-23T06:28:36;2.73;;;0.70;;
16075;SDS011;8142;48.242;11.644;2024-02-23T06:31:05;0.47;;;0.47;;
16075;SDS011;8142;48.242;11.644;2024-02-23T06:33:31;0.47;;;0.47;;
16075;SDS011;8142;48.242;11.644;2024-02-23T06:35:57;1.10;;;0.50;;
16075;SDS011;8142;48.242;11.644;2024-02-23T06:38:23;1.33;;;0.67;;
16075;SDS011;8142;48.242;11.644;2024-02-23T06:40:49;0.70;;;0.70;;
16075;SDS011;8142;48.242;11.644;2024-02-23T06:43:15;1.00;;;0.70;;
16075;SDS011;8142;48.242;11.644;2024-02-23T06:45:41;0.93;;;0.63;;
16075;SDS011;8142;48.242;11.644;2024-02-23T06:48:07;1.37;;;1.17;;
16075;SDS011;8142;48.242;11.644;2024-02-23T06:50:33;0.60;;;0.60;;
16075;SDS011;8142;48.242;11.644;2024-02-23T06:53:00;0.57;;;0.57;;
16075;SDS011;8142;48.242;11.644;2024-02-23T06:55:26;1.10;;;0.73;;
16075;SDS011;8142;48.242;11.644;2024-02-23T06:57:52;0.90;;;0.60;;
16075;SDS011;8142;48.242;11.644;2024-02-23T07:00:18;1.30;;;0.70;;
16075;SDS011;8142;48.242;11.644;2024-02-23T07:02:45;0.60;;;0.60;;
16075;SDS011;8142;48.242;11.644;2024-02-23T07:05:11;0.50;;;0.50;;
16075;SDS011;8142;48.242;11.644;2024-02-23T07:07:37;0.50;;;0.50;;
16075;SDS011;8142;48.242;11.644;2024-02-23T07:10:05;0.60;;;0.60;;
16075;SDS011;8142;48.242;11.644;2024-02-23T07:12:32;0.97;;;0.50;;
16075;SDS011;8142;48.242;11.644;2024-02-23T07:14:58;1.10;;;0.70;;
16075;SDS011;8142;48.242;11.644;2024-02-23T07:17:24;0.90;;;0.70;;
16075;SDS011;8142;48.242;11.644;2024-02-23T07:19:50;1.50;;;0.80;;
16075;SDS011;8142;48.242;11.644;2024-02-23T07:22:16;0.63;;;0.63;;
16075;SDS011;8142;48.242;11.644;2024-02-23T07:24:46;0.57;;;0.50;;
16075;SDS011;8142;48.242;11.644;2024-02-23T07:27:12;0.60;;;0.60;;
16075;SDS011;8142;48.242;11.644;2024-02-23T07:29:38;1.37;;;0.50;;
16075;SDS011;8142;48.242;11.644;2024-02-23T07:32:04;0.63;;;0.63;;
16075;SDS011;8142;48.242;11.644;2024-02-23T07:34:30;0.47;;;0.40;;
16075;SDS011;8142;48.242;11.644;2024-02-23T07:36:56;2.27;;;0.80;;
16075;SDS011;8142;48.242;11.644;2024-02-23T07:39:22;2.27;;;0.43;;
16075;SDS011;8142;48.242;11.644;2024-02-23T07:41:48;1.27;;;0.60;;
16075;SDS011;8142;48.242;11.644;2024-02-23T07:44:14;0.83;;;0.70;;
16075;SDS011;8142;48.242;11.644;2024-02-23T07:46:41;3.03;;;0.70;;
16075;SDS011;8142;48.242;11.644;2024-02-23T07:49:07;1.80;;;0.70;;
16075;SDS011;8142;48.242;11.644;2024-02-23T07:51:33;0.90;;;0.60;;
16075;SDS011;8142;48.242;11.644;2024-02-23T07:53:59;0.73;;;0.73;;
16075;SDS011;8142;48.242;11.644;2024-02-23T07:56:25;0.60;;;0.60;;
16075;SDS011;8142;48.242;11.644;2024-02-23T07:58:50;1.50;;;0.63;;
16075;SDS011;8142;48.242;11.644;2024-02-23T08:01:17;0.40;;;0.40;;
16075;SDS011;8142;48.242;11.644;2024-02-23T08:03:42;0.60;;;0.57;;
16075;SDS011;8142;48.242;11.644;2024-02-23T08:06:08;0.80;;;0.57;;
16075;SDS011;8142;48.242;11.644;2024-02-23T08:08:35;0.70;;;0.60;;
16075;SDS011;8142;48.242;11.644;2024-02-23T08:11:01;0.60;;;0.60;;
16075;SDS011;8142;48.242;11.644;2024-02-23T08:13:28;1.07;;;0.60;;
16075;SDS011;8142;48.242;11.644;2024-02-23T08:15:54;0.97;;;0.57;;
16075;SDS011;8142;48.242;11.644;2024-02-23T08:18:20;1.37;;;0.80;;
16075;SDS011;8142;48.242;11.644;2024-02-23T08:20:49;2.67;;;0.60;;
16075;SDS011;8142;48.242;11.644;2024-02-23T08:23:17;2.00;;;0.80;;
16075;SDS011;8142;48.242;11.644;2024-02-23T08:25:44;6.03;;;0.93;;
16075;SDS011;8142;48.242;11.644;2024-02-23T08:28:10;0.80;;;0.80;;
16075;SDS011;8142;48.242;11.644;2024-02-23T08:30:36;1.87;;;0.90;;
16075;SDS011;8142;48.242;11.644;2024-02-23T08:33:02;1.27;;;0.80;;
16075;SDS011;8142;48.242;11.644;2024-02-23T08:35:28;1.60;;;0.80;;
16075;SDS011;8142;48.242;11.644;2024-02-23T08:37:54;1.30;;;0.90;;
16075;SDS011;8142;48.242;11.644;2024-02-23T08:40:19;0.80;;;0.60;;
16075;SDS011;8142;48.242;11.644;2024-02-23T08:42:45;1.90;;;0.90;;
16075;SDS011;8142;48.242;11.644;2024-02-23T08:45:12;1.80;;;1.00;;
16075;SDS011;8142;48.242;11.644;2024-02-23T08:47:39;2.33;;;0.87;;
16075;SDS011;8142;48.242;11.644;2024-02-23T08:50:05;3.27;;;0.90;;
16075;SDS011;8142;48.242;11.644;2024-02-23T08:52:32;1.37;;;0.67;;
16075;SDS011;8142;48.242;11.644;2024-02-23T08:54:57;1.67;;;0.60;;
16075;SDS011;8142;48.242;11.644;2024-02-23T08:57:25;0.80;;;0.80;;
16075;SDS011;8142;48.242;11.644;2024-02-23T08:59:52;1.83;;;0.83;;
16075;SDS011;8142;48.242;11.644;2024-02-23T09:02:18;2.77;;;0.93;;
16075;SDS011;8142;48.242;11.644;2024-02-23T09:04:45;2.10;;;0.90;;
16075;SDS011;8142;48.242;11.644;2024-02-23T09:07:11;1.30;;;0.70;;
16075;SDS011;8142;48.242;11.644;2024-02-23T09:09:37;1.27;;;0.83;;
16075;SDS011;8142;48.242;11.644;2024-02-23T09:12:03;0.97;;;0.70;;
16075;SDS011;8142;48.242;11.644;2024-02-23T09:14:32;4.00;;;1.03;;
16075;SDS011;8142;48.242;11.644;2024-02-23T09:16:58;0.70;;;0.70;;
16075;SDS011;8142;48.242;11.644;2024-02-23T09:19:24;0.80;;;0.80;;
16075;SDS011;8142;48.242;11.644;2024-02-23T09:21:50;1.47;;;0.70;;
16075;SDS011;8142;48.242;11.644;2024-02-23T09:24:16;0.73;;;0.73;;
16075;SDS011;8142;48.242;11.644;2024-02-23T09:26:45;2.40;;;0.90;;
16075;SDS011;8142;48.242;11.644;2024-02-23T09:29:12;2.20;;;0.70;;
16075;SDS011;8142;48.242;11.644;2024-02-23T09:31:38;1.90;;;0.83;;
16075;SDS011;8142;48.242;11.644;2024-02-23T09:34:04;1.57;;;0.90;;
16075;SDS011;8142;48.242;11.644;2024-02-23T09:36:30;2.60;;;0.87;;
16075;SDS011;8142;48.242;11.644;2024-02-23T09:38:56;1.40;;;0.80;;
16075;SDS011;8142;48.242;11.644;2024-02-23T09:41:22;1.70;;;0.77;;
16075;SDS011;8142;48.242;11.644;2024-02-23T09:43:49;2.07;;;0.87;;
16075;SDS011;8142;48.242;11.644;2024-02-23T09:46:16;4.43;;;1.00;;
16075;SDS011;8142;48.242;11.644;2024-02-23T09:48:45;1.43;;;0.83;;
16075;SDS011;8142;48.242;11.644;2024-02-23T09:51:13;2.67;;;0.80;;
16075;SDS011;8142;48.242;11.644;2024-02-23T09:53:41;2.73;;;1.07;;
16075;SDS011;8142;48.242;11.644;2024-02-23T09:56:08;1.57;;;1.00;;
16075;SDS011;8142;48.242;11.644;2024-02-23T09:58:39;3.03;;;1.00;;
16075;SDS011;8142;48.242;11.644;2024-02-23T10:01:06;3.93;;;1.10;;
16075;SDS011;8142;48.242;11.644;2024-02-23T10:03:32;1.63;;;1.07;;
16075;SDS011;8142;48.242;11.644;2024-02-23T10:05:59;1.97;;;0.87;;
16075;SDS011;8142;48.242;11.644;2024-02-23T10:08:27;1.70;;;1.37;;
16075;SDS011;8142;48.242;11.644;2024-02-23T10:10:54;2.10;;;0.90;;
16075;SDS011;8142;48.242;11.644;2024-02-23T10:13:24;1.07;;;0.80;;
16075;SDS011;8142;48.242;11.644;2024-02-23T10:15:50;1.07;;;0.80;;
16075;SDS011;8142;48.242;11.644;2024-02-23T10:18:17;1.57;;;0.83;;
16075;SDS011;8142;48.242;11.644;2024-02-23T10:20:43;1.10;;;0.80;;
16075;SDS011;8142;48.242;11.644;2024-02-23T10:23:09;1.20;;;0.90;;
16075;SDS011;8142;48.242;11.644;2024-02-23T10:25:36;1.60;;;0.60;;
16075;SDS011;8142;48.242;11.644;2024-02-23T10:28:03;1.37;;;0.80;;
16075;SDS011;8142;48.242;11.644;2024-02-23T10:30:32;2.03;;;0.77;;
16075;SDS011;8142;48.242;11.644;2024-02-23T10:32:58;1.57;;;0.70;;
16075;SDS011;8142;48.242;11.644;2024-02-23T10:35:25;1.97;;;0.97;;
16075;SDS011;8142;48.242;11.644;2024-02-23T10:37:52;1.60;;;0.80;;
16075;SDS011;8142;48.242;11.644;2024-02-23T10:40:20;1.63;;;0.67;;
16075;SDS011;8142;48.242;11.644;2024-02-23T10:42:48;1.10;;;0.90;;
16075;SDS011;8142;48.242;11.644;2024-02-23T10:45:19;1.30;;;0.80;;
16075;SDS011;8142;48.242;11.644;2024-02-23T10:47:50;2.17;;;0.97;;
16075;SDS011;8142;48.242;11.644;2024-02-23T10:50:17;1.73;;;0.70;;
16075;SDS011;8142;48.242;11.644;2024-02-23T10:52:45;2.53;;;0.80;;
16075;SDS011;8142;48.242;11.644;2024-02-23T10:55:12;2.00;;;0.80;;
16075;SDS011;8142;48.242;11.644;2024-02-23T10:57:39;4.53;;;1.00;;
16075;SDS011;8142;48.242;11.644;2024-02-23T11:00:07;4.20;;;0.80;;
16075;SDS011;8142;48.242;11.644;2024-02-23T11:02:44;2.07;;;0.70;;
16075;SDS011;8142;48.242;11.644;2024-02-23T11:05:14;2.87;;;0.90;;
16075;SDS011;8142;48.242;11.644;2024-02-23T11:07:41;2.90;;;1.07;;
16075;SDS011;8142;48.242;11.644;2024-02-23T11:10:08;0.70;;;0.70;;
16075;SDS011;8142;48.242;11.644;2024-02-23T11:12:37;1.73;;;0.77;;
16075;SDS011;8142;48.242;11.644;2024-02-23T11:15:04;1.03;;;0.90;;
16075;SDS011;8142;48.242;11.644;2024-02-23T11:17:32;2.40;;;0.97;;
16075;SDS011;8142;48.242;11.644;2024-02-23T11:20:03;1.93;;;0.70;;
16075;SDS011;8142;48.242;11.644;2024-02-23T11:22:31;1.23;;;0.57;;
16075;SDS011;8142;48.242;11.644;2024-02-23T11:25:04;1.00;;;0.90;;
16075;SDS011;8142;48.242;11.644;2024-02-23T11:27:36;1.17;;;1.17;;
16075;SDS011;8142;48.242;11.644;2024-02-23T11:30:03;2.93;;;0.90;;
16075;SDS011;8142;48.242;11.644;2024-02-23T11:35:07;0.90;;;0.90;;
16075;SDS011;8142;48.242;11.644;2024-02-23T11:37:55;1.47;;;0.73;;
16075;SDS011;8142;48.242;11.644;2024-02-23T11:40:25;1.27;;;0.80;;
16075;SDS011;8142;48.242;11.644;2024-02-23T11:42:52;0.90;;;0.80;;
16075;SDS011;8142;48.242;11.644;2024-02-23T11:45:20;1.10;;;1.00;;
16075;SDS011;8142;48.242;11.644;2024-02-23T11:47:46;1.47;;;0.70;;
16075;SDS011;8142;48.242;11.644;2024-02-23T11:50:11;1.07;;;0.80;;
16075;SDS011;8142;48.242;11.644;2024-02-23T11:52:38;1.87;;;0.90;;
16075;SDS011;8142;48.242;11.644;2024-02-23T11:55:04;3.00;;;1.07;;
16075;SDS011;8142;48.242;11.644;2024-02-23T11:57:34;1.53;;;0.90;;
16075;SDS011;8142;48.242;11.644;2024-02-23T12:00:01;2.97;;;1.17;;
16075;SDS011;8142;48.242;11.644;2024-02-23T12:02:28;1.17;;;1.07;;
16075;SDS011;8142;48.242;11.644;2024-02-23T12:04:54;1.43;;;0.70;;
16075;SDS011;8142;48.242;11.644;2024-02-23T12:07:20;0.70;;;0.70;;
16075;SDS011;8142;48.242;11.644;2024-02-23T12:09:47;0.80;;;0.80;;
16075;SDS011;8142;48.242;11.644;2024-02-23T12:12:13;1.63;;;0.90;;
16075;SDS011;8142;48.242;11.644;2024-02-23T12:14:40;2.03;;;0.87;;
16075;SDS011;8142;48.242;11.644;2024-02-23T12:17:07;1.00;;;0.80;;
16075;SDS011;8142;48.242;11.644;2024-02-23T12:19:37;0.60;;;0.50;;
16075;SDS011;8142;48.242;11.644;2024-02-23T12:22:05;2.17;;;0.80;;
16075;SDS011;8142;48.242;11.644;2024-02-23T12:24:31;0.60;;;0.60;;
16075;SDS011;8142;48.242;11.644;2024-02-23T12:26:57;0.60;;;0.60;;
16075;SDS011;8142;48.242;11.644;2024-02-23T12:29:23;1.73;;;0.67;;
16075;SDS011;8142;48.242;11.644;2024-02-23T12:31:49;0.50;;;0.50;;
16075;SDS011;8142;48.242;11.644;2024-02-23T12:34:16;0.83;;;0.60;;
16075;SDS011;8142;48.242;11.644;2024-02-23T12:36:45;2.53;;;0.80;;
16075;SDS011;8142;48.242;11.644;2024-02-23T12:39:11;1.37;;;0.70;;
16075;SDS011;8142;48.242;11.644;2024-02-23T12:41:37;0.70;;;0.63;;
16075;SDS011;8142;48.242;11.644;2024-02-23T12:44:03;1.53;;;0.70;;
16075;SDS011;8142;48.242;11.644;2024-02-23T12:46:29;2.20;;;0.73;;
16075;SDS011;8142;48.242;11.644;2024-02-23T12:48:55;0.67;;;0.67;;
16075;SDS011;8142;48.242;11.644;2024-02-23T12:51:24;1.43;;;0.77;;
16075;SDS011;8142;48.242;11.644;2024-02-23T12:53:50;0.63;;;0.60;;
16075;SDS011;8142;48.242;11.644;2024-02-23T12:56:16;0.80;;;0.80;;
16075;SDS011;8142;48.242;11.644;2024-02-23T12:58:43;1.00;;;0.80;;
16075;SDS011;8142;48.242;11.644;2024-02-23T13:01:10;2.97;;;1.00;;
16075;SDS011;8142;48.242;11.644;2024-02-23T13:03:37;0.50;;;0.50;;
16075;SDS011;8142;48.242;11.644;2024-02-23T13:06:06;0.57;;;0.57;;
16075;SDS011;8142;48.242;11.644;2024-02-23T13:08:33;0.70;;;0.67;;
16075;SDS011;8142;48.242;11.644;2024-02-23T13:11:00;1.50;;;0.60;;
16075;SDS011;8142;48.242;11.644;2024-02-23T13:13:26;1.43;;;0.73;;
16075;SDS011;8142;48.242;11.644;2024-02-23T13:15:53;0.80;;;0.73;;
16075;SDS011;8142;48.242;11.644;2024-02-23T13:18:19;0.50;;;0.50;;
16075;SDS011;8142;48.242;11.644;2024-02-23T13:20:45;0.57;;;0.57;;
16075;SDS011;8142;48.242;11.644;2024-02-23T13:23:11;2.13;;;0.80;;
16075;SDS011;8142;48.242;11.644;2024-02-23T13:25:38;1.03;;;0.90;;
16075;SDS011;8142;48.242;11.644;2024-02-23T13:28:05;1.23;;;0.50;;
16075;SDS011;8142;48.242;11.644;2024-02-23T13:30:32;1.20;;;0.70;;
16075;SDS011;8142;48.242;11.644;2024-02-23T13:32:58;0.63;;;0.60;;
16075;SDS011;8142;48.242;11.644;2024-02-23T13:35:25;1.00;;;0.77;;
16075;SDS011;8142;48.242;11.644;2024-02-23T13:37:51;1.37;;;0.80;;
16075;SDS011;8142;48.242;11.644;2024-02-23T13:40:18;0.77;;;0.70;;
16075;SDS011;8142;48.242;11.644;2024-02-23T13:42:43;0.93;;;0.70;;
16075;SDS011;8142;48.242;11.644;2024-02-23T13:45:15;1.53;;;0.80;;
16075;SDS011;8142;48.242;11.644;2024-02-23T13:47:42;1.47;;;0.63;;
16075;SDS011;8142;48.242;11.644;2024-02-23T13:50:10;0.93;;;0.63;;
16075;SDS011;8142;48.242;11.644;2024-02-23T13:52:37;0.93;;;0.60;;
16075;SDS011;8142;48.242;11.644;2024-02-23T13:55:03;0.60;;;0.60;;
16075;SDS011;8142;48.242;11.644;2024-02-23T13:57:29;0.73;;;0.50;;
16075;SDS011;8142;48.242;11.644;2024-02-23T13:59:55;1.10;;;0.70;;
16075;SDS011;8142;48.242;11.644;2024-02-23T14:02:24;1.43;;;0.70;;
16075;SDS011;8142;48.242;11.644;2024-02-23T14:05:01;1.67;;;0.50;;
16075;SDS011;8142;48.242;11.644;2024-02-23T14:07:32;0.67;;;0.40;;
16075;SDS011;8142;48.242;11.644;2024-02-23T14:09:58;1.23;;;0.47;;
16075;SDS011;8142;48.242;11.644;2024-02-23T14:12:24;0.57;;;0.50;;
16075;SDS011;8142;48.242;11.644;2024-02-23T14:14:50;1.00;;;0.50;;
16075;SDS011;8142;48.242;11.644;2024-02-23T14:17:16;1.70;;;0.50;;
16075;SDS011;8142;48.242;11.644;2024-02-23T14:19:42;0.97;;;0.40;;
16075;SDS011;8142;48.242;11.644;2024-02-23T14:22:10;1.03;;;0.60;;
16075;SDS011;8142;48.242;11.644;2024-02-23T14:24:38;1.37;;;0.80;;
16075;SDS011;8142;48.242;11.644;2024-02-23T14:27:04;1.90;;;1.10;;
16075;SDS011;8142;48.242;11.644;2024-02-23T14:29:30;1.97;;;0.70;;
16075;SDS011;8142;48.242;11.644;2024-02-23T14:31:56;1.33;;;0.50;;
16075;SDS011;8142;48.242;11.644;2024-02-23T14:34:22;0.80;;;0.60;;
16075;SDS011;8142;48.242;11.644;2024-02-23T14:36:49;0.50;;;0.50;;
16075;SDS011;8142;48.242;11.644;2024-02-23T14:39:15;1.00;;;0.60;;
16075;SDS011;8142;48.242;11.644;2024-02-23T14:41:41;1.73;;;0.70;;
16075;SDS011;8142;48.242;11.644;2024-02-23T14:44:08;1.13;;;0.60;;
16075;SDS011;8142;48.242;11.644;2024-02-23T14:46:35;1.03;;;0.70;;
16075;SDS011;8142;48.242;11.644;2024-02-23T14:49:01;0.53;;;0.53;;